Terminal Aerodrome Forecast
Issued by NWS

Home | Current Version | Previous Version | Graphics & Text | Print | Product List | Glossary On
Versions: 1 2 3 4 5 6 7 8 9 10 11 12 13 14 15 16 17 18 19 20 21 22 23 24 25 26 27 28 29
000
FTUS43 KLOT 221956 AAB
TAFGYY
TAF AMD
KGYY 221956Z 2220/2318 17013G20KT P6SM VCSH OVC025
     FM222045 33015G25KT 3SM -DZ BR VCSH OVC008
      TEMPO 2222/2224 1 1/2SM -DZRA BR OVC005
     FM230000 36012G20KT 4SM -RA BR OVC006
     FM230200 36009KT 4SM -RA BR OVC007
     FM230600 35008KT 5SM -RA BR OVC015
     FM231400 28006KT P6SM SCT015 BKN150=

USA.gov is the U.S. government's official web portal to all federal, state and local government web resources and services.